Time;durP1;ratioP1;P1;durP2;ratioP2;P2;SDS_P1;SDS_P2;PMS_P1;PMS_P2;Temp;Humidity;BMP_temperature;BMP_pressure;BME280_temperature;BME280_humidity;BME280_pressure;Samples;Min_cycle;Max_cycle;Signal;HPM_P1;HPM_P2
2021/06/09 00:02:24;;;;;;;4.07;2.10;;;;;;;17.12;65.74;101530.52;126365;1092;62218;-77
2021/06/09 00:04:51;;;;;;;2.70;1.77;;;;;;;17.17;65.14;101537.14;125956;1093;63073;-77
2021/06/09 00:07:18;;;;;;;4.17;1.90;;;;;;;17.19;64.91;101529.73;126304;1093;62902;-78
2021/06/09 00:09:45;;;;;;;6.73;1.70;;;;;;;17.22;65.11;101534.71;126299;1092;63035;-78
2021/06/09 00:12:12;;;;;;;2.17;1.47;;;;;;;17.24;64.06;101532.66;126341;1093;63070;-78
2021/06/09 00:14:40;;;;;;;2.70;1.40;;;;;;;17.25;63.85;101523.58;126324;1093;62871;-78
2021/06/09 00:17:07;;;;;;;3.90;1.60;;;;;;;17.27;63.48;101516.16;126323;1093;64463;-77
2021/06/09 00:19:34;;;;;;;6.07;1.77;;;;;;;17.28;63.46;101523.20;126383;1092;63368;-78
2021/06/09 00:22:01;;;;;;;1.97;1.30;;;;;;;17.29;63.50;101522.16;126337;1093;62936;-77
2021/06/09 00:24:28;;;;;;;3.13;1.33;;;;;;;17.28;63.42;101520.52;126124;1092;62675;-77
2021/06/09 00:26:55;;;;;;;2.60;1.27;;;;;;;17.26;63.00;101523.39;126531;1093;62964;-77
2021/06/09 00:29:22;;;;;;;3.47;1.57;;;;;;;17.21;62.96;101500.86;128146;1093;62175;-79
2021/06/09 00:31:49;;;;;;;2.23;1.60;;;;;;;17.25;62.86;101518.21;128108;1093;62779;-79
2021/06/09 00:34:17;;;;;;;4.17;1.47;;;;;;;17.23;62.80;101515.72;127872;1093;62740;-78
2021/06/09 00:36:44;;;;;;;2.43;1.30;;;;;;;17.24;62.57;101519.25;126056;1093;62927;-77
2021/06/09 00:39:11;;;;;;;2.70;1.20;;;;;;;17.23;62.32;101520.27;126563;1093;62897;-77
2021/06/09 00:41:38;;;;;;;2.00;1.17;;;;;;;17.23;61.91;101522.95;126540;1093;62311;-76
2021/06/09 00:44:06;;;;;;;4.43;1.30;;;;;;;17.20;62.28;101528.72;127335;1093;62759;-77
2021/06/09 00:46:36;;;;;;;1.90;1.30;;;;;;;17.19;62.36;101529.73;126549;1093;62775;-77
2021/06/09 00:49:04;;;;;;;1.97;1.43;;;;;;;17.18;62.57;101522.72;126483;1093;62647;-77
2021/06/09 00:51:32;;;;;;;2.77;1.63;;;;;;;17.15;62.44;101525.78;126322;1093;62877;-79
2021/06/09 00:54:05;;;;;;;3.20;1.40;;;;;;;17.11;62.45;101528.88;126421;1093;62946;-77
2021/06/09 00:56:35;;;;;;;3.00;1.57;;;;;;;17.10;62.65;101521.84;126348;1093;63034;-78
2021/06/09 00:59:04;;;;;;;3.63;1.60;;;;;;;17.08;62.55;101523.07;126409;1091;64007;-78
2021/06/09 01:01:31;;;;;;;3.63;1.33;;;;;;;17.05;62.58;101520.80;126763;1092;62900;-78
2021/06/09 01:03:59;;;;;;;4.40;1.40;;;;;;;17.01;62.42;101515.00;126881;1093;62325;-79
2021/06/09 01:06:26;;;;;;;2.27;1.33;;;;;;;16.98;62.42;101518.08;126591;1093;64219;-78
2021/06/09 01:08:53;;;;;;;3.23;1.60;;;;;;;16.94;62.92;101522.19;126561;1093;62951;-77
2021/06/09 01:11:23;;;;;;;3.77;1.10;;;;;;;16.90;62.90;101515.55;126366;1093;63193;-76
2021/06/09 01:13:52;;;;;;;6.10;1.57;;;;;;;16.85;62.92;101523.34;126357;1092;62985;-76
2021/06/09 01:16:20;;;;;;;3.07;1.60;;;;;;;16.79;63.11;101524.09;126339;1093;63005;-76
2021/06/09 01:18:47;;;;;;;3.67;1.80;;;;;;;16.73;63.32;101511.50;126284;1093;64203;-76
2021/06/09 01:21:15;;;;;;;4.73;1.20;;;;;;;16.66;63.30;101509.60;126373;1093;62868;-77
2021/06/09 01:23:42;;;;;;;1.80;1.10;;;;;;;16.61;63.11;101511.20;126081;1093;63146;-78
2021/06/09 01:26:10;;;;;;;5.10;1.50;;;;;;;16.56;63.22;101509.11;126452;1093;62938;-77
2021/06/09 01:28:40;;;;;;;3.50;1.63;;;;;;;16.53;63.10;101504.13;126380;1093;63053;-78
2021/06/09 01:31:08;;;;;;;3.07;1.40;;;;;;;16.49;63.10;101508.21;126285;1093;62797;-78
2021/06/09 01:33:35;;;;;;;4.60;2.03;;;;;;;16.45;63.03;101504.30;126326;1093;63009;-77
2021/06/09 01:36:03;;;;;;;3.37;1.77;;;;;;;16.41;63.34;101501.16;126290;1093;62676;-77
2021/06/09 01:38:30;;;;;;;2.83;1.50;;;;;;;16.38;63.45;101500.71;126155;1093;62921;-77
2021/06/09 01:40:57;;;;;;;4.53;1.50;;;;;;;16.33;63.90;101503.16;125989;1093;62906;-78
2021/06/09 01:43:24;;;;;;;2.90;1.47;;;;;;;16.30;63.80;101505.20;126012;1093;63047;-77
2021/06/09 01:45:53;;;;;;;3.13;1.50;;;;;;;16.25;63.96;101494.22;126180;1093;62875;-78
2021/06/09 01:48:20;;;;;;;2.67;1.73;;;;;;;16.24;63.74;101500.61;127109;1093;63631;-77
2021/06/09 01:50:48;;;;;;;2.40;1.70;;;;;;;16.20;64.03;101499.34;126336;1093;63006;-78
2021/06/09 01:53:15;;;;;;;3.43;1.43;;;;;;;16.17;63.81;101505.09;126486;1093;62194;-78
2021/06/09 01:55:42;;;;;;;4.03;1.30;;;;;;;16.14;63.92;101505.45;125983;1093;62425;-77
2021/06/09 01:58:12;;;;;;;1.83;1.20;;;;;;;16.06;64.40;101501.05;126569;1092;63862;-77
2021/06/09 02:00:43;;;;;;;2.43;1.50;;;;;;;16.05;64.54;101507.44;126217;1092;62628;-77
2021/06/09 02:03:12;;;;;;;2.13;1.40;;;;;;;16.01;64.44;101510.69;126406;1093;62931;-76
2021/06/09 02:05:41;;;;;;;2.80;1.53;;;;;;;15.98;64.22;101505.70;126308;1093;62951;-77
2021/06/09 02:08:10;;;;;;;4.30;1.40;;;;;;;15.94;64.43;101507.09;126276;1093;62206;-77
2021/06/09 02:10:39;;;;;;;1.60;1.07;;;;;;;15.93;64.81;101508.13;126397;1092;62292;-78
2021/06/09 02:13:11;;;;;;;1.77;1.27;;;;;;;15.89;65.27;101507.67;126044;1093;63478;-77
2021/06/09 02:15:39;;;;;;;2.40;1.80;;;;;;;15.88;65.46;101498.01;126401;1093;62855;-77
2021/06/09 02:18:10;;;;;;;5.50;2.20;;;;;;;15.88;65.73;101501.50;126382;1093;62289;-78
2021/06/09 02:21:00;;;;;;;6.83;1.70;;;;;;;15.86;65.98;101498.19;126335;1092;62968;-78
2021/06/09 02:23:30;;;;;;;4.73;1.60;;;;;;;15.83;66.05;101498.58;126256;1093;62900;-77
2021/06/09 02:25:59;;;;;;;2.97;1.57;;;;;;;15.79;66.74;101502.66;126508;1093;62900;-77
2021/06/09 02:28:30;;;;;;;2.50;1.80;;;;;;;15.75;66.71;101496.02;126059;1093;62951;-77
2021/06/09 02:30:58;;;;;;;2.33;1.70;;;;;;;15.72;66.72;101500.91;126410;1093;63024;-78
2021/06/09 02:33:25;;;;;;;4.97;2.30;;;;;;;15.68;67.09;101511.12;126456;1093;63008;-77
2021/06/09 02:35:54;;;;;;;4.20;1.57;;;;;;;15.65;67.44;101506.98;126393;1093;62819;-79
2021/06/09 02:38:22;;;;;;;5.00;1.70;;;;;;;15.64;67.18;101512.51;126320;1093;62252;-77
2021/06/09 02:40:52;;;;;;;5.90;1.93;;;;;;;15.62;66.85;101502.02;126294;1093;63348;-78
2021/06/09 02:43:20;;;;;;;2.50;1.60;;;;;;;15.62;67.23;101501.17;126374;1093;62964;-78
2021/06/09 02:45:52;;;;;;;2.93;1.63;;;;;;;15.62;67.04;101496.67;126468;1092;62734;-78
2021/06/09 02:48:24;;;;;;;3.43;1.80;;;;;;;15.64;67.18;101501.81;126438;1093;62278;-78
2021/06/09 02:50:52;;;;;;;3.40;2.23;;;;;;;15.65;67.14;101498.95;126514;1093;63008;-78
2021/06/09 02:53:26;;;;;;;4.70;1.67;;;;;;;15.68;67.22;101505.77;126403;1093;64792;-78
2021/06/09 02:56:20;;;;;;;4.08;1.65;;;;;;;15.72;66.98;101504.41;126333;1093;62820;-78
2021/06/09 02:59:20;;;;;;;6.03;2.20;;;;;;;15.77;67.09;101498.48;126030;1093;62819;-77
2021/06/09 03:01:59;;;;;;;3.00;1.90;;;;;;;15.81;67.00;101500.61;126416;1093;63035;-77
2021/06/09 03:04:37;;;;;;;4.27;1.97;;;;;;;15.85;66.48;101501.90;126010;1093;63004;-77
2021/06/09 03:07:16;;;;;;;4.40;2.03;;;;;;;15.88;66.67;101496.16;126226;1092;63287;-78
2021/06/09 03:09:43;;;;;;;5.90;1.63;;;;;;;15.92;66.59;101495.76;126392;1093;63009;-78
2021/06/09 03:12:37;;;;;;;3.40;1.30;;;;;;;15.93;66.45;101490.22;126409;1093;62897;-77
2021/06/09 03:15:10;;;;;;;6.37;1.70;;;;;;;15.94;66.57;101477.66;126295;1093;62190;-77
2021/06/09 03:18:04;;;;;;;4.53;1.93;;;;;;;15.92;67.04;101477.03;126453;1091;62938;-78
2021/06/09 03:20:39;;;;;;;2.63;1.20;;;;;;;15.87;67.12;101475.78;126165;1092;62833;-78
2021/06/09 03:23:13;;;;;;;5.37;1.50;;;;;;;15.83;67.29;101484.35;126361;1092;62865;-78
2021/06/09 03:25:56;;;;;;;3.77;1.70;;;;;;;15.77;67.51;101485.96;126433;1093;63488;-77
2021/06/09 03:28:37;;;;;;;4.53;1.50;;;;;;;15.71;67.69;101478.66;126252;1093;62945;-78
2021/06/09 03:31:06;;;;;;;4.40;1.73;;;;;;;15.68;67.85;101479.02;126118;1093;62064;-78
2021/06/09 03:33:40;;;;;;;6.37;1.90;;;;;;;15.66;68.12;101481.05;126150;1093;62317;-77
2021/06/09 03:36:38;;;;;;;7.23;2.17;;;;;;;15.64;68.11;101483.09;126268;1093;63507;-77
2021/06/09 03:39:08;;;;;;;2.43;1.60;;;;;;;15.62;68.43;101485.98;126294;1093;62807;-76
2021/06/09 03:41:42;;;;;;;2.60;1.80;;;;;;;15.61;68.52;101478.13;126330;1093;62821;-77
2021/06/09 03:44:11;;;;;;;3.10;1.60;;;;;;;15.59;68.49;101480.16;125964;1093;62048;-77
2021/06/09 03:46:42;;;;;;;7.80;2.03;;;;;;;15.60;68.57;101492.53;125985;1092;62618;-77
2021/06/09 03:49:15;;;;;;;3.87;1.63;;;;;;;15.59;68.74;101486.34;126030;1093;62496;-78
2021/06/09 03:51:44;;;;;;;3.40;1.60;;;;;;;15.61;68.65;101478.13;126458;1093;63224;-77
2021/06/09 03:54:15;;;;;;;5.07;1.90;;;;;;;15.61;68.95;101481.63;126469;1093;62759;-77
2021/06/09 03:56:43;;;;;;;2.73;1.93;;;;;;;15.60;68.96;101476.49;126117;1092;65480;-77
2021/06/09 03:59:13;;;;;;;4.07;2.00;;;;;;;15.61;69.20;101483.48;125983;1093;62478;-76
2021/06/09 04:01:41;;;;;;;2.40;1.70;;;;;;;15.60;69.44;101488.01;126346;1093;62798;-76
2021/06/09 04:04:14;;;;;;;2.33;1.70;;;;;;;15.63;69.43;101492.14;126343;1093;62878;-77
2021/06/09 04:06:43;;;;;;;4.37;2.17;;;;;;;15.64;69.45;101488.44;126191;1092;62129;-77
2021/06/09 04:09:17;;;;;;;3.73;1.80;;;;;;;15.68;69.46;101487.05;126268;1093;62903;-76
2021/06/09 04:11:49;;;;;;;2.70;1.67;;;;;;;15.77;69.26;101483.28;126332;1093;62941;-77
2021/06/09 04:14:19;;;;;;;5.20;2.00;;;;;;;15.84;69.38;101484.17;127220;1093;62775;-77
2021/06/09 04:16:47;;;;;;;3.23;1.80;;;;;;;15.92;69.13;101482.38;126375;1092;62930;-77
2021/06/09 04:19:17;;;;;;;3.77;2.13;;;;;;;16.00;69.05;101487.61;126279;1093;63446;-77
2021/06/09 04:21:44;;;;;;;3.03;1.67;;;;;;;16.09;68.93;101486.48;126389;1093;63108;-77
2021/06/09 04:24:14;;;;;;;3.03;1.80;;;;;;;16.18;68.67;101487.99;126297;1093;64280;-77
2021/06/09 04:26:41;;;;;;;5.47;2.03;;;;;;;16.25;68.31;101482.69;126133;1093;64225;-77
2021/06/09 04:29:09;;;;;;;2.93;1.93;;;;;;;16.31;68.12;101485.42;126293;1092;62980;-76
2021/06/09 04:31:36;;;;;;;3.90;1.80;;;;;;;16.40;68.04;101485.28;126356;1093;62891;-78
2021/06/09 04:34:03;;;;;;;5.27;1.70;;;;;;;16.46;67.74;101493.36;126217;1093;62736;-78
2021/06/09 04:36:30;;;;;;;2.60;1.77;;;;;;;16.54;67.53;101492.41;126622;1093;62926;-78
2021/06/09 04:38:57;;;;;;;2.73;1.73;;;;;;;16.62;67.80;101492.26;126396;1092;62893;-78
2021/06/09 04:41:27;;;;;;;4.90;1.90;;;;;;;16.71;67.86;101495.61;126517;1093;62893;-79
2021/06/09 04:43:55;;;;;;;4.13;2.00;;;;;;;16.81;67.27;101495.28;126794;1093;62625;-78
2021/06/09 04:46:23;;;;;;;3.70;2.00;;;;;;;16.90;66.95;101486.08;126654;1093;63724;-79
2021/06/09 04:49:03;;;;;;;2.67;1.30;;;;;;;16.92;66.72;101494.75;126796;1091;62391;-79
2021/06/09 04:51:34;;;;;;;3.10;1.37;;;;;;;16.93;66.54;101488.34;126732;1093;62896;-77
2021/06/09 04:54:04;;;;;;;7.23;1.90;;;;;;;16.97;66.50;101483.43;126390;1093;63419;-78
2021/06/09 04:56:37;;;;;;;2.70;1.70;;;;;;;17.05;66.34;101491.31;126520;1093;62905;-79
2021/06/09 04:59:06;;;;;;;3.40;1.80;;;;;;;17.14;66.27;101486.61;126351;1093;62272;-79
2021/06/09 05:01:40;;;;;;;2.57;1.67;;;;;;;17.23;66.34;101478.18;126565;1093;64377;-77
2021/06/09 05:04:07;;;;;;;5.18;2.23;;;;;;;17.32;66.13;101481.55;126713;1093;63006;-77
2021/06/09 05:06:37;;;;;;;3.27;1.80;;;;;;;17.39;66.23;101479.70;126476;1093;62403;-77
2021/06/09 05:09:07;;;;;;;5.10;2.27;;;;;;;17.45;65.98;101481.59;126413;1093;63139;-78
2021/06/09 05:11:52;;;;;;;3.47;1.87;;;;;;;17.49;65.80;101488.20;126468;1093;62363;-78
2021/06/09 05:14:25;;;;;;;3.63;1.58;;;;;;;17.52;65.56;101482.42;126276;1093;63025;-78
2021/06/09 05:16:54;;;;;;;3.97;2.03;;;;;;;17.54;65.25;101476.86;126397;1093;62894;-73
2021/06/09 05:19:28;;;;;;;4.30;1.80;;;;;;;17.55;65.37;101469.63;127188;1093;62871;-74
2021/06/09 05:22:08;;;;;;;4.20;1.73;;;;;;;17.55;65.66;101470.45;126716;1092;62953;-74
2021/06/09 05:24:38;;;;;;;4.70;1.70;;;;;;;17.53;65.88;101468.00;126228;1093;63016;-73
2021/06/09 05:27:07;;;;;;;3.57;1.97;;;;;;;17.53;66.10;101470.68;126313;1093;63131;-73
2021/06/09 05:29:35;;;;;;;3.27;1.70;;;;;;;17.57;66.09;101468.40;126023;1092;63322;-73
2021/06/09 05:32:03;;;;;;;3.37;1.90;;;;;;;17.60;66.30;101468.01;126342;1092;63044;-73
2021/06/09 05:34:35;;;;;;;4.60;1.53;;;;;;;17.62;66.37;101479.37;126105;1093;63530;-72
2021/06/09 05:37:02;;;;;;;4.07;2.07;;;;;;;17.65;66.26;101483.50;126301;1092;63073;-73
2021/06/09 05:39:30;;;;;;;3.30;1.80;;;;;;;17.71;66.69;101471.95;126268;1093;63553;-74
2021/06/09 05:41:57;;;;;;;4.60;1.73;;;;;;;17.79;66.38;101477.14;126113;1093;62955;-74
2021/06/09 05:44:28;;;;;;;3.80;1.67;;;;;;;17.85;66.02;101472.82;125980;1093;62200;-73
2021/06/09 05:46:59;;;;;;;9.70;2.67;;;;;;;17.95;65.99;101483.17;126044;1093;63801;-74
2021/06/09 05:49:27;;;;;;;5.10;2.33;;;;;;;18.06;65.53;101483.41;126628;1093;62996;-74
2021/06/09 05:51:55;;;;;;;6.13;1.83;;;;;;;18.20;65.35;101478.86;126147;1092;63005;-73
2021/06/09 05:54:23;;;;;;;7.20;1.85;;;;;;;18.32;64.82;101481.77;126181;1093;62543;-74
2021/06/09 05:56:51;;;;;;;4.47;1.77;;;;;;;18.47;64.41;101478.86;126121;1093;62900;-74
2021/06/09 05:59:18;;;;;;;3.90;1.90;;;;;;;18.59;64.08;101477.17;126479;1093;63401;-75
2021/06/09 06:01:45;;;;;;;3.53;1.67;;;;;;;18.70;64.25;101479.23;126259;1093;63292;-75
2021/06/09 06:04:12;;;;;;;4.47;1.50;;;;;;;18.81;64.25;101479.67;125958;1093;63790;-75
2021/06/09 06:06:40;;;;;;;2.20;1.57;;;;;;;18.91;63.71;101480.88;126318;1093;63720;-75
2021/06/09 06:09:07;;;;;;;2.87;1.80;;;;;;;19.02;63.35;101482.09;126206;1093;63638;-75
2021/06/09 06:11:35;;;;;;;2.77;1.37;;;;;;;19.12;63.28;101479.75;125851;1093;62939;-75
2021/06/09 06:14:08;;;;;;;3.97;1.27;;;;;;;19.23;62.99;101480.13;126170;1093;63721;-75
2021/06/09 06:16:37;;;;;;;3.90;1.63;;;;;;;19.33;62.41;101481.33;126361;1093;62380;-75
2021/06/09 06:19:05;;;;;;;2.87;1.50;;;;;;;19.37;62.26;101479.05;126293;1093;63031;-75
2021/06/09 06:21:32;;;;;;;2.67;1.67;;;;;;;19.42;62.05;101481.09;126246;1093;63299;-75
2021/06/09 06:24:00;;;;;;;6.40;4.93;;;;;;;19.44;62.50;101482.52;126136;1093;63091;-75
2021/06/09 06:26:28;;;;;;;3.03;1.80;;;;;;;19.50;61.93;101480.84;126244;1093;64485;-75
2021/06/09 06:28:55;;;;;;;2.50;1.70;;;;;;;19.54;61.51;101473.99;126358;1093;62897;-76
2021/06/09 06:31:24;;;;;;;2.77;1.80;;;;;;;19.64;61.55;101473.53;126372;1093;63034;-75
2021/06/09 06:33:59;;;;;;;5.13;1.83;;;;;;;19.75;61.53;101480.95;126288;1093;63619;-74
2021/06/09 06:36:27;;;;;;;3.70;1.68;;;;;;;19.85;60.87;101475.06;126286;1093;62896;-75
2021/06/09 06:38:55;;;;;;;3.93;1.50;;;;;;;19.94;60.68;101479.98;126312;1093;62194;-75
2021/06/09 06:41:23;;;;;;;4.17;2.50;;;;;;;20.03;59.90;101471.64;126256;1093;62212;-74
2021/06/09 06:43:51;;;;;;;8.43;6.00;;;;;;;20.13;59.42;101477.38;126359;1093;62900;-74
2021/06/09 06:46:23;;;;;;;3.00;1.60;;;;;;;20.25;59.10;101470.23;126403;1093;63021;-75
2021/06/09 06:48:53;;;;;;;2.57;1.70;;;;;;;20.36;59.38;101477.58;126221;1093;63033;-75
2021/06/09 06:51:21;;;;;;;4.43;1.83;;;;;;;20.42;59.09;101475.04;126362;1093;62666;-75
2021/06/09 06:53:54;;;;;;;3.43;1.50;;;;;;;20.45;58.33;101475.43;126752;1093;64160;-75
2021/06/09 06:56:24;;;;;;;3.03;1.40;;;;;;;20.53;58.07;101477.84;126551;1092;62900;-75
2021/06/09 06:58:52;;;;;;;3.30;1.47;;;;;;;20.62;58.23;101474.90;126373;1093;62984;-73
2021/06/09 07:01:29;;;;;;;2.40;1.33;;;;;;;20.73;57.21;101477.66;126341;1093;62945;-75
2021/06/09 07:03:56;;;;;;;3.33;1.27;;;;;;;20.88;56.40;101484.58;126333;1093;64033;-75
2021/06/09 07:06:24;;;;;;;3.13;1.60;;;;;;;21.10;55.73;101479.54;126335;1093;62539;-75
2021/06/09 07:09:02;;;;;;;4.57;2.37;;;;;;;21.27;54.85;101485.14;126323;1093;62143;-76
2021/06/09 07:11:33;;;;;;;4.10;1.80;;;;;;;21.50;54.83;101484.47;126450;1093;62216;-77
2021/06/09 07:14:01;;;;;;;3.10;1.63;;;;;;;21.64;53.51;101479.72;126377;1093;62146;-76
2021/06/09 07:16:32;;;;;;;3.37;1.63;;;;;;;21.80;53.66;101484.45;126347;1093;62708;-76
2021/06/09 07:19:05;;;;;;;3.83;1.97;;;;;;;21.87;52.78;101487.08;126384;1093;62508;-76
2021/06/09 07:21:34;;;;;;;3.25;1.35;;;;;;;21.81;50.62;101471.79;126248;1093;63012;-76
2021/06/09 07:24:03;;;;;;;2.20;1.53;;;;;;;21.85;52.22;101487.30;126342;1093;62961;-76
2021/06/09 07:26:34;;;;;;;5.03;1.97;;;;;;;21.88;51.76;101488.71;126392;1093;62894;-77
2021/06/09 07:29:02;;;;;;;3.17;1.73;;;;;;;21.92;52.50;101484.49;126341;1093;62975;-78
2021/06/09 07:31:36;;;;;;;4.13;1.87;;;;;;;21.92;52.32;101485.31;126123;1093;63067;-78
2021/06/09 07:34:05;;;;;;;2.70;1.73;;;;;;;21.93;52.07;101486.97;126432;1093;63094;-77
2021/06/09 07:36:39;;;;;;;3.30;1.33;;;;;;;21.92;52.74;101488.02;126433;1092;62942;-78
2021/06/09 07:39:11;;;;;;;4.43;1.50;;;;;;;22.03;53.18;101488.27;126527;1093;62913;-77
2021/06/09 07:41:42;;;;;;;3.67;1.50;;;;;;;22.15;53.99;101486.42;126419;1093;62436;-77
2021/06/09 07:44:11;;;;;;;3.57;1.73;;;;;;;22.22;53.68;101484.42;126523;1093;62826;-76
2021/06/09 07:46:39;;;;;;;7.20;1.80;;;;;;;22.27;53.67;101487.30;126591;1093;62971;-76
2021/06/09 07:49:09;;;;;;;3.70;2.10;;;;;;;22.42;50.72;101481.43;126192;1093;62941;-74
2021/06/09 07:51:37;;;;;;;3.87;2.73;;;;;;;22.57;49.56;101480.95;126372;1093;63473;-74
2021/06/09 07:54:06;;;;;;;2.03;1.13;;;;;;;22.67;48.67;101491.98;126118;1092;62385;-73
2021/06/09 07:56:37;;;;;;;3.33;2.00;;;;;;;22.60;48.35;101485.88;126166;1093;62981;-74
2021/06/09 07:59:06;;;;;;;2.63;1.57;;;;;;;22.45;47.92;101485.53;126521;1093;62205;-75
2021/06/09 08:01:35;;;;;;;4.47;1.70;;;;;;;22.39;48.76;101490.80;126840;1093;62218;-76
2021/06/09 08:04:03;;;;;;;6.20;2.63;;;;;;;22.39;49.24;101484.59;126609;1093;63494;-77
2021/06/09 08:06:30;;;;;;;5.10;3.27;;;;;;;22.35;49.77;101484.22;126501;1093;63680;-76
2021/06/09 08:08:58;;;;;;;3.93;1.80;;;;;;;22.48;50.28;101483.17;126254;1093;62346;-77
2021/06/09 08:11:25;;;;;;;4.33;1.57;;;;;;;22.62;50.40;101483.77;126529;1093;62364;-76
2021/06/09 08:14:03;;;;;;;2.87;1.33;;;;;;;22.65;49.71;101483.28;126503;1093;62768;-77
2021/06/09 08:16:32;;;;;;;4.53;2.03;;;;;;;22.66;50.43;101484.94;126512;1093;62169;-76
2021/06/09 08:19:06;;;;;;;3.50;1.50;;;;;;;22.72;49.42;101472.37;126391;1093;63034;-75
2021/06/09 08:21:35;;;;;;;2.80;2.10;;;;;;;22.87;49.29;101474.58;126525;1093;62724;-74
2021/06/09 08:24:04;;;;;;;2.60;1.60;;;;;;;23.00;48.88;101471.60;128103;1092;62092;-75
2021/06/09 08:26:33;;;;;;;3.10;2.30;;;;;;;23.07;48.04;101469.60;127730;1093;62223;-76
2021/06/09 08:29:00;;;;;;;4.60;2.40;;;;;;;23.20;48.53;101474.73;128006;1092;64074;-77
2021/06/09 08:31:30;;;;;;;4.00;2.53;;;;;;;23.31;48.27;101475.78;127756;1092;62143;-77
2021/06/09 08:33:59;;;;;;;3.47;2.03;;;;;;;23.44;48.38;101476.54;127094;1093;62461;-75
2021/06/09 08:36:27;;;;;;;3.40;2.03;;;;;;;23.49;47.87;101468.53;126576;1093;62936;-75
2021/06/09 08:38:58;;;;;;;4.07;2.00;;;;;;;23.45;47.69;101470.89;126541;1091;62224;-73
2021/06/09 08:41:34;;;;;;;4.10;2.03;;;;;;;23.43;48.78;101473.02;126271;1093;63545;-75
2021/06/09 08:44:04;;;;;;;3.13;1.80;;;;;;;23.49;48.13;101479.36;126111;1093;62344;-75
2021/06/09 08:46:33;;;;;;;5.87;2.27;;;;;;;23.58;48.04;101470.59;126256;1093;62972;-75
2021/06/09 08:49:03;;;;;;;4.50;2.40;;;;;;;23.57;46.99;101474.38;126530;1093;62600;-76
2021/06/09 08:51:32;;;;;;;3.70;1.70;;;;;;;23.61;47.20;101467.41;126185;1093;62060;-77
2021/06/09 08:54:02;;;;;;;3.97;1.80;;;;;;;23.70;48.52;101472.44;126501;1093;63845;-73
2021/06/09 08:56:31;;;;;;;3.43;1.70;;;;;;;23.84;47.80;101468.36;126542;1091;63497;-74
2021/06/09 08:58:59;;;;;;;3.63;2.33;;;;;;;23.98;47.77;101474.30;126240;1093;63571;-75
2021/06/09 09:01:26;;;;;;;5.97;1.93;;;;;;;24.01;47.65;101469.22;126526;1093;62783;-74
2021/06/09 09:03:54;;;;;;;6.80;2.17;;;;;;;24.08;48.33;101479.05;127842;1093;62297;-74
2021/06/09 09:06:21;;;;;;;3.97;2.33;;;;;;;24.21;49.06;101471.42;127801;1093;62735;-73
2021/06/09 09:08:48;;;;;;;5.33;2.50;;;;;;;24.33;48.74;101470.50;127642;1093;63031;-73
2021/06/09 09:11:16;;;;;;;4.27;1.97;;;;;;;24.39;48.71;101474.93;127551;1092;62968;-73
2021/06/09 09:13:43;;;;;;;8.87;2.27;;;;;;;24.49;48.02;101474.30;126537;1093;62826;-73
2021/06/09 09:16:10;;;;;;;5.10;2.47;;;;;;;24.55;48.08;101473.31;126328;1093;62291;-72
2021/06/09 09:19:04;;;;;;;4.10;2.40;;;;;;;24.62;47.32;101473.94;126285;1093;64197;-72
2021/06/09 09:21:35;;;;;;;3.17;1.90;;;;;;;24.67;46.55;101478.61;126351;1093;63003;-73
2021/06/09 09:24:07;;;;;;;3.10;2.27;;;;;;;24.60;47.00;101486.94;126337;1093;62396;-74
2021/06/09 09:26:36;;;;;;;7.43;2.00;;;;;;;24.46;46.16;101481.02;126314;1093;63550;-75
2021/06/09 09:29:15;;;;;;;4.73;2.07;;;;;;;24.39;47.03;101489.30;126397;1093;62928;-75
2021/06/09 09:32:07;;;;;;;7.57;2.53;;;;;;;24.47;46.50;101489.97;126114;1093;62209;-74
2021/06/09 09:34:36;;;;;;;6.43;2.57;;;;;;;24.55;46.95;101484.16;126322;1093;62584;-74
2021/06/09 09:37:12;;;;;;;5.63;2.40;;;;;;;24.67;45.61;101487.56;126410;1093;62044;-73
2021/06/09 09:39:41;;;;;;;3.30;2.33;;;;;;;24.80;46.34;101487.23;126306;1093;62792;-75
2021/06/09 09:42:33;;;;;;;4.57;2.40;;;;;;;24.99;46.77;101481.47;126297;1093;62941;-75
2021/06/09 09:45:22;;;;;;;2.67;2.13;;;;;;;25.12;46.07;101481.11;126377;1093;63865;-76
2021/06/09 09:48:11;;;;;;;6.80;2.33;;;;;;;25.33;46.49;101490.36;126359;1093;63462;-76
2021/06/09 09:50:40;;;;;;;4.20;2.50;;;;;;;25.50;45.16;101492.14;126053;1093;63035;-75
2021/06/09 09:53:24;;;;;;;5.90;2.53;;;;;;;25.66;44.53;101493.13;126384;1092;62958;-75
2021/06/09 09:56:22;;;;;;;5.30;2.20;;;;;;;25.82;43.60;101484.02;126532;1093;64163;-75
2021/06/09 09:58:54;;;;;;;4.17;2.70;;;;;;;25.99;44.59;101487.49;126339;1093;63005;-74
2021/06/09 10:01:23;;;;;;;4.07;2.37;;;;;;;26.14;43.76;101483.23;126343;1093;63523;-74
2021/06/09 10:03:53;;;;;;;4.43;3.30;;;;;;;26.26;43.62;101481.16;126380;1093;64168;-74
2021/06/09 10:06:41;;;;;;;4.60;3.37;;;;;;;26.38;43.37;101478.27;126502;1093;62209;-74
2021/06/09 10:09:21;;;;;;;5.33;3.57;;;;;;;26.53;43.36;101469.38;126339;1093;62935;-73
2021/06/09 10:12:00;;;;;;;4.33;3.13;;;;;;;26.74;43.82;101462.17;126078;1092;62887;-74
2021/06/09 10:14:55;;;;;;;3.80;2.67;;;;;;;26.88;42.58;101460.58;126317;1093;63147;-75
2021/06/09 10:17:26;;;;;;;5.45;3.50;;;;;;;26.99;43.12;101462.28;126358;1093;63114;-74
2021/06/09 10:20:03;;;;;;;5.30;3.73;;;;;;;27.05;41.32;101455.77;126358;1093;62178;-74
2021/06/09 10:22:36;;;;;;;3.87;2.70;;;;;;;27.00;41.90;101452.20;126078;1093;64180;-74
2021/06/09 10:25:19;;;;;;;6.07;3.57;;;;;;;27.05;42.42;101452.20;126288;1093;62951;-75
2021/06/09 10:27:48;;;;;;;5.83;3.40;;;;;;;27.15;42.92;101448.71;126391;1093;63663;-75
2021/06/09 10:30:20;;;;;;;4.27;3.30;;;;;;;27.22;42.67;101454.74;125979;1093;63005;-75
2021/06/09 10:32:56;;;;;;;4.23;3.33;;;;;;;27.30;41.53;101445.23;126328;1093;62935;-75
2021/06/09 10:35:42;;;;;;;6.10;5.50;;;;;;;27.33;41.19;101439.23;126603;1093;62161;-75
2021/06/09 10:38:09;;;;;;;6.27;3.97;;;;;;;27.40;42.53;101446.08;126353;1093;62942;-75
2021/06/09 10:40:36;;;;;;;9.47;6.63;;;;;;;27.53;41.04;101439.28;126288;1093;62971;-74
2021/06/09 10:43:07;;;;;;;5.50;3.47;;;;;;;27.58;40.93;101443.91;126350;1093;62724;-75
2021/06/09 10:45:36;;;;;;;4.00;2.30;;;;;;;27.58;40.38;101447.45;126302;1093;63578;-75
2021/06/09 10:48:04;;;;;;;5.87;3.67;;;;;;;27.56;40.62;101433.27;126307;1093;62971;-74
2021/06/09 10:50:32;;;;;;;3.80;3.17;;;;;;;27.55;41.12;101441.74;126438;1093;62990;-74
2021/06/09 10:53:06;;;;;;;7.23;3.63;;;;;;;27.58;41.15;101443.91;126340;1093;62304;-74
2021/06/09 10:55:33;;;;;;;6.85;3.83;;;;;;;27.68;40.87;101440.39;126324;1092;64269;-74
2021/06/09 10:58:01;;;;;;;6.00;3.60;;;;;;;27.72;42.02;101436.84;126426;1093;62253;-76
2021/06/09 11:00:29;;;;;;;6.00;4.10;;;;;;;27.78;41.61;101429.49;126336;1093;62216;-74
2021/06/09 11:02:56;;;;;;;4.57;3.50;;;;;;;27.88;41.45;101432.22;126325;1093;62714;-74
2021/06/09 11:05:23;;;;;;;5.60;3.90;;;;;;;28.03;40.14;101431.39;126301;1093;62287;-74
2021/06/09 11:07:53;;;;;;;5.57;3.90;;;;;;;28.06;39.75;101426.22;126449;1092;62651;-74
2021/06/09 11:10:30;;;;;;;5.27;3.80;;;;;;;28.08;40.58;101438.78;126242;1093;63037;-73
2021/06/09 11:12:58;;;;;;;4.10;3.17;;;;;;;28.24;40.47;101437.64;126367;1093;62145;-75
2021/06/09 11:15:31;;;;;;;5.97;3.80;;;;;;;28.37;39.35;101426.17;126439;1093;62963;-75
2021/06/09 11:18:15;;;;;;;5.90;3.83;;;;;;;28.57;39.16;101424.50;126321;1093;62836;-74
2021/06/09 11:20:47;;;;;;;4.03;2.77;;;;;;;28.70;39.01;101412.17;126514;1093;62824;-74
2021/06/09 11:23:33;;;;;;;4.63;3.18;;;;;;;28.80;38.32;101407.48;126071;1093;63049;-74
2021/06/09 11:26:05;;;;;;;6.80;3.40;;;;;;;28.85;37.32;101415.63;126481;1093;64108;-74
2021/06/09 11:28:32;;;;;;;3.83;2.67;;;;;;;28.90;37.76;101416.70;126374;1093;62082;-74
2021/06/09 11:31:20;;;;;;;4.47;3.17;;;;;;;28.97;38.23;101417.23;126303;1093;62805;-75
2021/06/09 11:33:50;;;;;;;3.73;3.33;;;;;;;29.01;37.69;101413.66;126188;1093;62455;-75
2021/06/09 11:36:17;;;;;;;4.50;3.57;;;;;;;29.06;38.02;101404.61;126382;1092;62903;-75